MVY weather

Martha's Vineyard Airport
Martha's Vineyard, Massachusetts, United States

Public forecast

Using degrees Fahrenheit for public forecast. Weather courtesy of forecast.io.

Current aviation weather report (METAR) for Martha's Vineyard Airport

Retrieved 2019/11/18 12:37 UTC (2 minutes ago):

KMVY 181237Z 02015G24KT 4SM -RA BR OVC006 08/07 A2980 RMK AO2 PK WND 01027/1221 CIG 005V009 P0001 T00830072

Closest aviation forecast (TAF) to Martha's Vineyard Airport

Closest forecast is Cape Cod Coast Guard Air Station, 16.5 nm (30.5 km) NNE. Retrieved 2019/11/18 12:22 UTC (17 minutes ago):

TAF KFMH 181120Z 1812/1912 03016G31KT 2SM -DZ BR OVC006 FM181300 02016G31KT 3SM -RA BR OVC008 FM190100 01014G26KT 2SM BR VCSH OVC003 FM190600 34009KT 5SM BR VCSH OVC003 FM191100 30005KT P6SM OVC010